sensor_id;sensor_type;location;lat;lon;timestamp;P1;durP1;ratioP1;P2;durP2;ratioP2
58697;SDS011;44475;53.206;-6.106;2024-03-08T00:01:02;8.32;;;5.07;;
58697;SDS011;44475;53.206;-6.106;2024-03-08T00:03:28;8.18;;;4.97;;
58697;SDS011;44475;53.206;-6.106;2024-03-08T00:05:55;10.43;;;4.97;;
58697;SDS011;44475;53.206;-6.106;2024-03-08T00:41:33;8.45;;;5.00;;
58697;SDS011;44475;53.206;-6.106;2024-03-08T00:44:17;7.10;;;4.88;;
58697;SDS011;44475;53.206;-6.106;2024-03-08T00:46:43;7.93;;;5.00;;
58697;SDS011;44475;53.206;-6.106;2024-03-08T00:49:19;8.60;;;5.40;;
58697;SDS011;44475;53.206;-6.106;2024-03-08T00:51:45;7.85;;;5.00;;
58697;SDS011;44475;53.206;-6.106;2024-03-08T00:54:11;8.43;;;4.93;;
58697;SDS011;44475;53.206;-6.106;2024-03-08T00:56:37;7.93;;;4.70;;
58697;SDS011;44475;53.206;-6.106;2024-03-08T00:59:04;10.13;;;4.65;;
58697;SDS011;44475;53.206;-6.106;2024-03-08T01:01:30;7.93;;;5.03;;
58697;SDS011;44475;53.206;-6.106;2024-03-08T01:03:56;8.93;;;5.05;;
58697;SDS011;44475;53.206;-6.106;2024-03-08T01:06:23;7.43;;;4.65;;
58697;SDS011;44475;53.206;-6.106;2024-03-08T01:08:49;8.10;;;4.95;;
58697;SDS011;44475;53.206;-6.106;2024-03-08T01:11:18;7.97;;;4.90;;
58697;SDS011;44475;53.206;-6.106;2024-03-08T01:13:44;9.25;;;5.40;;
58697;SDS011;44475;53.206;-6.106;2024-03-08T01:16:12;9.07;;;4.60;;
58697;SDS011;44475;53.206;-6.106;2024-03-08T01:18:38;7.28;;;4.43;;
58697;SDS011;44475;53.206;-6.106;2024-03-08T01:21:05;7.85;;;4.88;;
58697;SDS011;44475;53.206;-6.106;2024-03-08T01:23:31;9.82;;;4.55;;
58697;SDS011;44475;53.206;-6.106;2024-03-08T01:25:57;8.68;;;4.95;;
58697;SDS011;44475;53.206;-6.106;2024-03-08T01:28:24;8.48;;;4.70;;
58697;SDS011;44475;53.206;-6.106;2024-03-08T01:30:50;7.43;;;4.70;;
58697;SDS011;44475;53.206;-6.106;2024-03-08T01:33:24;8.05;;;4.55;;
58697;SDS011;44475;53.206;-6.106;2024-03-08T01:35:51;6.97;;;4.45;;
58697;SDS011;44475;53.206;-6.106;2024-03-08T01:38:17;8.02;;;4.55;;
58697;SDS011;44475;53.206;-6.106;2024-03-08T01:40:44;9.43;;;4.65;;
58697;SDS011;44475;53.206;-6.106;2024-03-08T01:43:17;7.72;;;4.85;;
58697;SDS011;44475;53.206;-6.106;2024-03-08T01:45:43;8.82;;;4.45;;
58697;SDS011;44475;53.206;-6.106;2024-03-08T01:48:10;7.78;;;4.85;;
58697;SDS011;44475;53.206;-6.106;2024-03-08T01:50:37;7.68;;;4.90;;
58697;SDS011;44475;53.206;-6.106;2024-03-08T01:53:04;10.05;;;5.03;;
58697;SDS011;44475;53.206;-6.106;2024-03-08T01:55:31;7.93;;;4.70;;
58697;SDS011;44475;53.206;-6.106;2024-03-08T01:57:57;9.20;;;4.95;;
58697;SDS011;44475;53.206;-6.106;2024-03-08T02:00:24;6.90;;;4.50;;
58697;SDS011;44475;53.206;-6.106;2024-03-08T02:02:51;8.75;;;4.60;;
58697;SDS011;44475;53.206;-6.106;2024-03-08T02:05:20;9.48;;;4.88;;
58697;SDS011;44475;53.206;-6.106;2024-03-08T02:07:46;9.50;;;4.70;;
58697;SDS011;44475;53.206;-6.106;2024-03-08T02:10:12;9.75;;;4.97;;
58697;SDS011;44475;53.206;-6.106;2024-03-08T02:12:38;9.65;;;4.75;;
58697;SDS011;44475;53.206;-6.106;2024-03-08T02:15:05;9.20;;;4.45;;
58697;SDS011;44475;53.206;-6.106;2024-03-08T02:17:31;9.18;;;5.10;;
58697;SDS011;44475;53.206;-6.106;2024-03-08T02:20:01;6.50;;;4.22;;
58697;SDS011;44475;53.206;-6.106;2024-03-08T02:22:28;6.90;;;4.43;;
58697;SDS011;44475;53.206;-6.106;2024-03-08T02:24:58;8.25;;;4.65;;
58697;SDS011;44475;53.206;-6.106;2024-03-08T02:27:26;8.57;;;4.95;;
58697;SDS011;44475;53.206;-6.106;2024-03-08T02:29:55;8.18;;;4.65;;
58697;SDS011;44475;53.206;-6.106;2024-03-08T02:32:21;7.60;;;4.47;;
58697;SDS011;44475;53.206;-6.106;2024-03-08T02:34:48;7.55;;;4.50;;
58697;SDS011;44475;53.206;-6.106;2024-03-08T02:37:14;6.97;;;4.40;;
58697;SDS011;44475;53.206;-6.106;2024-03-08T02:39:41;9.68;;;4.72;;
58697;SDS011;44475;53.206;-6.106;2024-03-08T02:42:07;8.30;;;4.78;;
58697;SDS011;44475;53.206;-6.106;2024-03-08T02:44:33;7.88;;;4.53;;
58697;SDS011;44475;53.206;-6.106;2024-03-08T02:47:01;8.73;;;4.95;;
58697;SDS011;44475;53.206;-6.106;2024-03-08T02:49:34;8.82;;;4.82;;
58697;SDS011;44475;53.206;-6.106;2024-03-08T02:52:03;10.00;;;4.80;;
58697;SDS011;44475;53.206;-6.106;2024-03-08T02:54:30;8.05;;;4.50;;
58697;SDS011;44475;53.206;-6.106;2024-03-08T02:56:58;8.18;;;4.47;;
58697;SDS011;44475;53.206;-6.106;2024-03-08T02:59:25;8.18;;;4.72;;
58697;SDS011;44475;53.206;-6.106;2024-03-08T03:01:53;7.68;;;4.90;;
58697;SDS011;44475;53.206;-6.106;2024-03-08T03:04:22;6.43;;;4.30;;
58697;SDS011;44475;53.206;-6.106;2024-03-08T03:23:39;8.70;;;4.55;;
58697;SDS011;44475;53.206;-6.106;2024-03-08T03:26:11;7.38;;;4.70;;
58697;SDS011;44475;53.206;-6.106;2024-03-08T03:28:39;7.78;;;4.40;;
58697;SDS011;44475;53.206;-6.106;2024-03-08T03:31:06;8.32;;;4.75;;
58697;SDS011;44475;53.206;-6.106;2024-03-08T03:33:35;8.73;;;4.45;;
58697;SDS011;44475;53.206;-6.106;2024-03-08T03:36:03;8.02;;;4.38;;
58697;SDS011;44475;53.206;-6.106;2024-03-08T03:38:30;8.60;;;4.88;;
58697;SDS011;44475;53.206;-6.106;2024-03-08T03:40:57;7.70;;;4.65;;
58697;SDS011;44475;53.206;-6.106;2024-03-08T03:43:29;10.03;;;4.73;;
58697;SDS011;44475;53.206;-6.106;2024-03-08T03:45:55;7.57;;;4.60;;
58697;SDS011;44475;53.206;-6.106;2024-03-08T03:48:22;9.10;;;4.60;;
58697;SDS011;44475;53.206;-6.106;2024-03-08T03:50:48;8.65;;;4.40;;
58697;SDS011;44475;53.206;-6.106;2024-03-08T03:53:15;7.07;;;4.30;;
58697;SDS011;44475;53.206;-6.106;2024-03-08T03:55:41;8.10;;;4.70;;
58697;SDS011;44475;53.206;-6.106;2024-03-08T03:58:08;8.43;;;4.30;;
58697;SDS011;44475;53.206;-6.106;2024-03-08T04:00:37;6.78;;;4.50;;
58697;SDS011;44475;53.206;-6.106;2024-03-08T04:03:03;8.25;;;4.55;;
58697;SDS011;44475;53.206;-6.106;2024-03-08T04:05:30;7.88;;;4.43;;
58697;SDS011;44475;53.206;-6.106;2024-03-08T04:07:56;10.23;;;4.43;;
58697;SDS011;44475;53.206;-6.106;2024-03-08T04:10:23;7.45;;;4.35;;
58697;SDS011;44475;53.206;-6.106;2024-03-08T04:12:49;7.05;;;4.45;;
58697;SDS011;44475;53.206;-6.106;2024-03-08T04:15:15;6.80;;;4.40;;
58697;SDS011;44475;53.206;-6.106;2024-03-08T04:17:42;7.10;;;4.38;;
58697;SDS011;44475;53.206;-6.106;2024-03-08T04:20:08;7.35;;;4.15;;
58697;SDS011;44475;53.206;-6.106;2024-03-08T04:22:39;7.30;;;3.97;;
58697;SDS011;44475;53.206;-6.106;2024-03-08T04:25:06;7.93;;;4.38;;
58697;SDS011;44475;53.206;-6.106;2024-03-08T04:27:32;5.88;;;3.70;;
58697;SDS011;44475;53.206;-6.106;2024-03-08T04:29:59;7.20;;;4.13;;
58697;SDS011;44475;53.206;-6.106;2024-03-08T04:32:25;6.68;;;4.20;;
58697;SDS011;44475;53.206;-6.106;2024-03-08T04:34:53;6.93;;;4.07;;
58697;SDS011;44475;53.206;-6.106;2024-03-08T04:37:19;6.90;;;3.92;;
58697;SDS011;44475;53.206;-6.106;2024-03-08T04:39:48;7.45;;;4.20;;
58697;SDS011;44475;53.206;-6.106;2024-03-08T04:42:14;6.93;;;4.20;;
58697;SDS011;44475;53.206;-6.106;2024-03-08T04:44:43;7.18;;;4.10;;
58697;SDS011;44475;53.206;-6.106;2024-03-08T04:47:09;9.25;;;4.50;;
58697;SDS011;44475;53.206;-6.106;2024-03-08T04:49:36;7.93;;;3.95;;
58697;SDS011;44475;53.206;-6.106;2024-03-08T04:52:02;7.70;;;4.20;;
58697;SDS011;44475;53.206;-6.106;2024-03-08T04:54:29;6.32;;;4.00;;
58697;SDS011;44475;53.206;-6.106;2024-03-08T04:56:55;6.45;;;3.80;;
58697;SDS011;44475;53.206;-6.106;2024-03-08T04:59:21;6.75;;;4.15;;
58697;SDS011;44475;53.206;-6.106;2024-03-08T05:01:47;6.53;;;4.10;;
58697;SDS011;44475;53.206;-6.106;2024-03-08T05:04:13;9.95;;;4.18;;
58697;SDS011;44475;53.206;-6.106;2024-03-08T05:06:40;6.60;;;3.80;;
58697;SDS011;44475;53.206;-6.106;2024-03-08T05:09:06;7.90;;;4.20;;
58697;SDS011;44475;53.206;-6.106;2024-03-08T05:11:47;12.45;;;3.90;;
58697;SDS011;44475;53.206;-6.106;2024-03-08T05:14:14;5.78;;;3.60;;
58697;SDS011;44475;53.206;-6.106;2024-03-08T05:16:47;7.95;;;4.05;;
58697;SDS011;44475;53.206;-6.106;2024-03-08T05:19:14;5.88;;;3.95;;
58697;SDS011;44475;53.206;-6.106;2024-03-08T05:21:45;6.07;;;3.92;;
58697;SDS011;44475;53.206;-6.106;2024-03-08T05:24:12;6.45;;;3.90;;
58697;SDS011;44475;53.206;-6.106;2024-03-08T05:26:40;7.10;;;3.78;;
58697;SDS011;44475;53.206;-6.106;2024-03-08T05:29:07;6.30;;;4.20;;
58697;SDS011;44475;53.206;-6.106;2024-03-08T05:31:47;7.00;;;3.70;;
58697;SDS011;44475;53.206;-6.106;2024-03-08T05:34:14;6.45;;;4.20;;
58697;SDS011;44475;53.206;-6.106;2024-03-08T05:36:40;6.20;;;4.00;;
58697;SDS011;44475;53.206;-6.106;2024-03-08T05:39:10;8.32;;;4.50;;
58697;SDS011;44475;53.206;-6.106;2024-03-08T05:41:37;8.88;;;3.88;;
58697;SDS011;44475;53.206;-6.106;2024-03-08T05:44:04;6.22;;;3.83;;
58697;SDS011;44475;53.206;-6.106;2024-03-08T05:46:30;6.18;;;3.83;;
58697;SDS011;44475;53.206;-6.106;2024-03-08T05:48:57;20.77;;;4.00;;
58697;SDS011;44475;53.206;-6.106;2024-03-08T05:51:24;8.95;;;3.75;;
58697;SDS011;44475;53.206;-6.106;2024-03-08T05:53:53;8.60;;;3.47;;
58697;SDS011;44475;53.206;-6.106;2024-03-08T05:56:21;6.93;;;3.72;;
58697;SDS011;44475;53.206;-6.106;2024-03-08T05:58:48;7.80;;;3.80;;
58697;SDS011;44475;53.206;-6.106;2024-03-08T06:01:15;6.25;;;3.88;;
58697;SDS011;44475;53.206;-6.106;2024-03-08T06:03:41;6.85;;;3.45;;
58697;SDS011;44475;53.206;-6.106;2024-03-08T06:06:12;6.18;;;3.72;;
58697;SDS011;44475;53.206;-6.106;2024-03-08T06:08:39;5.35;;;3.67;;
58697;SDS011;44475;53.206;-6.106;2024-03-08T06:11:05;5.30;;;3.42;;
58697;SDS011;44475;53.206;-6.106;2024-03-08T06:13:32;6.72;;;3.75;;
58697;SDS011;44475;53.206;-6.106;2024-03-08T06:15:59;4.93;;;3.58;;
58697;SDS011;44475;53.206;-6.106;2024-03-08T06:18:30;7.35;;;4.00;;
58697;SDS011;44475;53.206;-6.106;2024-03-08T06:20:56;5.78;;;3.63;;
58697;SDS011;44475;53.206;-6.106;2024-03-08T06:23:22;6.82;;;4.30;;
58697;SDS011;44475;53.206;-6.106;2024-03-08T06:25:49;7.28;;;3.70;;
58697;SDS011;44475;53.206;-6.106;2024-03-08T06:28:15;6.40;;;3.97;;
58697;SDS011;44475;53.206;-6.106;2024-03-08T06:30:42;6.95;;;3.70;;
58697;SDS011;44475;53.206;-6.106;2024-03-08T06:33:08;6.63;;;4.00;;
58697;SDS011;44475;53.206;-6.106;2024-03-08T06:35:35;7.25;;;3.90;;
58697;SDS011;44475;53.206;-6.106;2024-03-08T06:38:03;5.63;;;3.85;;
58697;SDS011;44475;53.206;-6.106;2024-03-08T06:40:30;5.78;;;3.83;;
58697;SDS011;44475;53.206;-6.106;2024-03-08T06:42:56;5.55;;;3.75;;
58697;SDS011;44475;53.206;-6.106;2024-03-08T06:45:22;8.35;;;3.72;;
58697;SDS011;44475;53.206;-6.106;2024-03-08T06:47:49;6.40;;;3.65;;
58697;SDS011;44475;53.206;-6.106;2024-03-08T06:50:15;7.57;;;3.90;;
58697;SDS011;44475;53.206;-6.106;2024-03-08T06:52:41;7.88;;;3.90;;
58697;SDS011;44475;53.206;-6.106;2024-03-08T06:55:08;6.57;;;4.05;;
58697;SDS011;44475;53.206;-6.106;2024-03-08T06:57:40;6.82;;;3.80;;
58697;SDS011;44475;53.206;-6.106;2024-03-08T07:00:07;5.88;;;3.90;;
58697;SDS011;44475;53.206;-6.106;2024-03-08T07:02:40;6.00;;;3.60;;
58697;SDS011;44475;53.206;-6.106;2024-03-08T07:05:07;6.43;;;4.07;;
58697;SDS011;44475;53.206;-6.106;2024-03-08T07:07:35;6.65;;;3.75;;
58697;SDS011;44475;53.206;-6.106;2024-03-08T07:10:02;7.18;;;3.97;;
58697;SDS011;44475;53.206;-6.106;2024-03-08T07:12:29;6.43;;;3.80;;
58697;SDS011;44475;53.206;-6.106;2024-03-08T07:14:55;7.13;;;3.83;;
58697;SDS011;44475;53.206;-6.106;2024-03-08T07:17:21;8.98;;;4.50;;
58697;SDS011;44475;53.206;-6.106;2024-03-08T07:19:48;10.88;;;4.43;;
58697;SDS011;44475;53.206;-6.106;2024-03-08T07:22:15;10.40;;;4.30;;
58697;SDS011;44475;53.206;-6.106;2024-03-08T07:24:41;10.68;;;4.45;;
58697;SDS011;44475;53.206;-6.106;2024-03-08T07:27:25;12.90;;;3.95;;
58697;SDS011;44475;53.206;-6.106;2024-03-08T07:29:51;6.65;;;3.92;;
58697;SDS011;44475;53.206;-6.106;2024-03-08T07:32:18;7.65;;;4.65;;
58697;SDS011;44475;53.206;-6.106;2024-03-08T07:34:48;11.70;;;4.20;;
58697;SDS011;44475;53.206;-6.106;2024-03-08T07:37:18;7.78;;;3.92;;
58697;SDS011;44475;53.206;-6.106;2024-03-08T07:39:45;8.73;;;4.22;;
58697;SDS011;44475;53.206;-6.106;2024-03-08T07:42:11;8.70;;;3.97;;
58697;SDS011;44475;53.206;-6.106;2024-03-08T07:44:38;10.68;;;4.00;;
58697;SDS011;44475;53.206;-6.106;2024-03-08T07:47:05;8.40;;;3.97;;
58697;SDS011;44475;53.206;-6.106;2024-03-08T07:49:34;7.00;;;3.80;;
58697;SDS011;44475;53.206;-6.106;2024-03-08T07:52:00;7.72;;;3.80;;
58697;SDS011;44475;53.206;-6.106;2024-03-08T07:54:29;8.23;;;4.00;;
58697;SDS011;44475;53.206;-6.106;2024-03-08T07:56:56;7.35;;;3.83;;
58697;SDS011;44475;53.206;-6.106;2024-03-08T07:59:22;6.18;;;3.90;;
58697;SDS011;44475;53.206;-6.106;2024-03-08T08:01:48;5.10;;;3.63;;
58697;SDS011;44475;53.206;-6.106;2024-03-08T08:04:14;6.38;;;3.63;;
58697;SDS011;44475;53.206;-6.106;2024-03-08T08:06:43;5.70;;;3.58;;
58697;SDS011;44475;53.206;-6.106;2024-03-08T08:09:09;6.43;;;3.90;;
58697;SDS011;44475;53.206;-6.106;2024-03-08T08:11:41;7.45;;;4.03;;
58697;SDS011;44475;53.206;-6.106;2024-03-08T08:14:09;6.13;;;3.80;;
58697;SDS011;44475;53.206;-6.106;2024-03-08T08:16:35;8.88;;;4.05;;
58697;SDS011;44475;53.206;-6.106;2024-03-08T08:19:03;7.85;;;4.15;;
58697;SDS011;44475;53.206;-6.106;2024-03-08T08:21:35;7.18;;;4.18;;
58697;SDS011;44475;53.206;-6.106;2024-03-08T08:24:05;9.32;;;4.50;;
58697;SDS011;44475;53.206;-6.106;2024-03-08T08:26:31;7.40;;;4.32;;
58697;SDS011;44475;53.206;-6.106;2024-03-08T08:29:01;7.10;;;4.38;;
58697;SDS011;44475;53.206;-6.106;2024-03-08T08:31:27;6.75;;;3.90;;
58697;SDS011;44475;53.206;-6.106;2024-03-08T08:33:53;7.90;;;4.38;;
58697;SDS011;44475;53.206;-6.106;2024-03-08T08:36:26;8.57;;;4.55;;
58697;SDS011;44475;53.206;-6.106;2024-03-08T08:38:56;7.80;;;4.20;;
58697;SDS011;44475;53.206;-6.106;2024-03-08T08:41:23;6.72;;;4.45;;
58697;SDS011;44475;53.206;-6.106;2024-03-08T08:43:50;6.63;;;4.28;;
58697;SDS011;44475;53.206;-6.106;2024-03-08T08:46:17;8.18;;;4.55;;
58697;SDS011;44475;53.206;-6.106;2024-03-08T08:48:43;7.43;;;4.30;;
58697;SDS011;44475;53.206;-6.106;2024-03-08T08:51:12;7.03;;;4.25;;
58697;SDS011;44475;53.206;-6.106;2024-03-08T08:53:42;6.75;;;4.20;;
58697;SDS011;44475;53.206;-6.106;2024-03-08T08:56:10;5.63;;;4.05;;
58697;SDS011;44475;53.206;-6.106;2024-03-08T08:58:47;9.48;;;4.60;;
58697;SDS011;44475;53.206;-6.106;2024-03-08T09:01:14;8.48;;;4.28;;
58697;SDS011;44475;53.206;-6.106;2024-03-08T09:03:41;7.68;;;4.78;;
58697;SDS011;44475;53.206;-6.106;2024-03-08T09:06:11;6.70;;;4.57;;
58697;SDS011;44475;53.206;-6.106;2024-03-08T09:08:38;6.53;;;4.07;;
58697;SDS011;44475;53.206;-6.106;2024-03-08T09:11:04;10.57;;;4.50;;
58697;SDS011;44475;53.206;-6.106;2024-03-08T09:13:31;6.55;;;4.50;;
58697;SDS011;44475;53.206;-6.106;2024-03-08T09:15:59;7.35;;;4.55;;
58697;SDS011;44475;53.206;-6.106;2024-03-08T09:18:25;13.27;;;4.68;;
58697;SDS011;44475;53.206;-6.106;2024-03-08T09:20:51;7.95;;;4.75;;
58697;SDS011;44475;53.206;-6.106;2024-03-08T09:23:22;9.57;;;4.60;;
58697;SDS011;44475;53.206;-6.106;2024-03-08T09:25:49;11.23;;;4.85;;
58697;SDS011;44475;53.206;-6.106;2024-03-08T09:28:15;8.50;;;4.72;;
58697;SDS011;44475;53.206;-6.106;2024-03-08T09:30:41;7.03;;;4.40;;
58697;SDS011;44475;53.206;-6.106;2024-03-08T09:33:08;10.73;;;4.30;;
58697;SDS011;44475;53.206;-6.106;2024-03-08T09:35:34;7.60;;;4.22;;
58697;SDS011;44475;53.206;-6.106;2024-03-08T09:38:01;6.47;;;4.18;;
58697;SDS011;44475;53.206;-6.106;2024-03-08T09:40:28;6.03;;;4.07;;
58697;SDS011;44475;53.206;-6.106;2024-03-08T09:42:54;7.47;;;4.40;;
58697;SDS011;44475;53.206;-6.106;2024-03-08T09:45:22;5.70;;;4.18;;
58697;SDS011;44475;53.206;-6.106;2024-03-08T09:47:50;8.68;;;4.53;;
58697;SDS011;44475;53.206;-6.106;2024-03-08T09:50:16;7.20;;;4.68;;
58697;SDS011;44475;53.206;-6.106;2024-03-08T09:52:43;6.93;;;4.22;;
58697;SDS011;44475;53.206;-6.106;2024-03-08T09:55:12;6.28;;;4.30;;
58697;SDS011;44475;53.206;-6.106;2024-03-08T09:57:38;6.50;;;4.25;;
58697;SDS011;44475;53.206;-6.106;2024-03-08T10:00:05;6.18;;;4.05;;
58697;SDS011;44475;53.206;-6.106;2024-03-08T10:02:49;6.45;;;4.28;;
58697;SDS011;44475;53.206;-6.106;2024-03-08T10:05:18;5.95;;;4.28;;
58697;SDS011;44475;53.206;-6.106;2024-03-08T10:07:47;6.68;;;4.20;;
58697;SDS011;44475;53.206;-6.106;2024-03-08T10:10:13;6.82;;;3.90;;
58697;SDS011;44475;53.206;-6.106;2024-03-08T10:12:39;6.80;;;4.28;;
58697;SDS011;44475;53.206;-6.106;2024-03-08T10:15:07;6.45;;;4.00;;
58697;SDS011;44475;53.206;-6.106;2024-03-08T10:17:34;6.90;;;4.10;;
58697;SDS011;44475;53.206;-6.106;2024-03-08T10:20:00;6.28;;;3.97;;
58697;SDS011;44475;53.206;-6.106;2024-03-08T10:22:28;6.90;;;3.97;;
58697;SDS011;44475;53.206;-6.106;2024-03-08T10:24:56;7.22;;;4.22;;
58697;SDS011;44475;53.206;-6.106;2024-03-08T10:27:23;6.95;;;4.20;;
58697;SDS011;44475;53.206;-6.106;2024-03-08T10:29:51;9.35;;;4.18;;
58697;SDS011;44475;53.206;-6.106;2024-03-08T10:32:17;5.55;;;4.10;;
58697;SDS011;44475;53.206;-6.106;2024-03-08T10:34:43;5.50;;;3.83;;
58697;SDS011;44475;53.206;-6.106;2024-03-08T10:37:12;7.18;;;4.15;;
58697;SDS011;44475;53.206;-6.106;2024-03-08T10:39:44;6.80;;;4.35;;
58697;SDS011;44475;53.206;-6.106;2024-03-08T10:42:16;6.13;;;3.88;;
58697;SDS011;44475;53.206;-6.106;2024-03-08T10:44:58;6.30;;;3.97;;
58697;SDS011;44475;53.206;-6.106;2024-03-08T10:47:29;6.65;;;4.13;;
58697;SDS011;44475;53.206;-6.106;2024-03-08T10:50:17;6.82;;;3.78;;
58697;SDS011;44475;53.206;-6.106;2024-03-08T10:52:50;5.55;;;3.83;;
58697;SDS011;44475;53.206;-6.106;2024-03-08T10:55:20;6.72;;;4.03;;
58697;SDS011;44475;53.206;-6.106;2024-03-08T10:57:46;7.25;;;4.10;;
58697;SDS011;44475;53.206;-6.106;2024-03-08T11:00:13;5.68;;;3.88;;
58697;SDS011;44475;53.206;-6.106;2024-03-08T11:02:45;6.20;;;4.20;;
58697;SDS011;44475;53.206;-6.106;2024-03-08T11:07:41;8.85;;;4.22;;
58697;SDS011;44475;53.206;-6.106;2024-03-08T11:10:18;8.57;;;4.07;;
58697;SDS011;44475;53.206;-6.106;2024-03-08T11:12:44;7.32;;;4.28;;
58697;SDS011;44475;53.206;-6.106;2024-03-08T11:15:11;8.10;;;4.30;;
58697;SDS011;44475;53.206;-6.106;2024-03-08T11:20:11;5.95;;;4.05;;
58697;SDS011;44475;53.206;-6.106;2024-03-08T11:25:40;7.53;;;4.50;;
58697;SDS011;44475;53.206;-6.106;2024-03-08T11:28:09;6.72;;;4.05;;
58697;SDS011;44475;53.206;-6.106;2024-03-08T11:30:42;5.93;;;4.20;;
58697;SDS011;44475;53.206;-6.106;2024-03-08T11:33:11;7.47;;;4.43;;
58697;SDS011;44475;53.206;-6.106;2024-03-08T11:35:38;10.35;;;4.40;;
58697;SDS011;44475;53.206;-6.106;2024-03-08T11:38:04;6.38;;;4.10;;
58697;SDS011;44475;53.206;-6.106;2024-03-08T11:40:31;6.18;;;4.13;;
58697;SDS011;44475;53.206;-6.106;2024-03-08T11:42:58;6.35;;;4.18;;
58697;SDS011;44475;53.206;-6.106;2024-03-08T11:45:24;7.60;;;4.40;;
58697;SDS011;44475;53.206;-6.106;2024-03-08T11:47:50;7.60;;;4.40;;
58697;SDS011;44475;53.206;-6.106;2024-03-08T11:50:18;5.85;;;3.92;;
58697;SDS011;44475;53.206;-6.106;2024-03-08T11:52:46;6.47;;;4.00;;
58697;SDS011;44475;53.206;-6.106;2024-03-08T11:55:12;6.47;;;4.05;;
58697;SDS011;44475;53.206;-6.106;2024-03-08T11:57:38;7.72;;;4.32;;
58697;SDS011;44475;53.206;-6.106;2024-03-08T12:00:05;7.25;;;4.40;;
58697;SDS011;44475;53.206;-6.106;2024-03-08T12:02:33;8.60;;;4.28;;
58697;SDS011;44475;53.206;-6.106;2024-03-08T12:05:07;7.82;;;4.32;;
58697;SDS011;44475;53.206;-6.106;2024-03-08T12:07:39;6.10;;;4.03;;
58697;SDS011;44475;53.206;-6.106;2024-03-08T12:10:18;6.03;;;3.97;;
58697;SDS011;44475;53.206;-6.106;2024-03-08T12:12:46;6.20;;;4.05;;
58697;SDS011;44475;53.206;-6.106;2024-03-08T12:15:14;8.90;;;4.22;;
58697;SDS011;44475;53.206;-6.106;2024-03-08T12:17:41;8.68;;;4.53;;
58697;SDS011;44475;53.206;-6.106;2024-03-08T12:20:11;7.22;;;4.65;;
58697;SDS011;44475;53.206;-6.106;2024-03-08T12:22:40;6.63;;;4.30;;
58697;SDS011;44475;53.206;-6.106;2024-03-08T12:25:07;7.05;;;4.32;;
58697;SDS011;44475;53.206;-6.106;2024-03-08T12:27:35;7.28;;;4.22;;
58697;SDS011;44475;53.206;-6.106;2024-03-08T12:32:48;7.15;;;4.30;;
58697;SDS011;44475;53.206;-6.106;2024-03-08T12:35:14;6.65;;;4.40;;
58697;SDS011;44475;53.206;-6.106;2024-03-08T12:37:41;7.22;;;4.28;;
58697;SDS011;44475;53.206;-6.106;2024-03-08T12:40:08;6.63;;;4.07;;
58697;SDS011;44475;53.206;-6.106;2024-03-08T12:42:35;7.53;;;4.20;;
58697;SDS011;44475;53.206;-6.106;2024-03-08T12:45:02;8.43;;;4.40;;
58697;SDS011;44475;53.206;-6.106;2024-03-08T12:47:31;7.15;;;4.05;;
58697;SDS011;44475;53.206;-6.106;2024-03-08T12:49:58;8.10;;;4.40;;
58697;SDS011;44475;53.206;-6.106;2024-03-08T12:52:24;6.50;;;4.13;;
58697;SDS011;44475;53.206;-6.106;2024-03-08T12:54:50;7.57;;;4.20;;
58697;SDS011;44475;53.206;-6.106;2024-03-08T12:57:16;8.57;;;4.53;;
58697;SDS011;44475;53.206;-6.106;2024-03-08T12:59:43;6.85;;;4.50;;
58697;SDS011;44475;53.206;-6.106;2024-03-08T13:02:09;7.43;;;4.30;;
58697;SDS011;44475;53.206;-6.106;2024-03-08T13:04:36;6.65;;;4.38;;
58697;SDS011;44475;53.206;-6.106;2024-03-08T13:07:02;6.65;;;4.35;;
58697;SDS011;44475;53.206;-6.106;2024-03-08T13:09:29;6.97;;;4.40;;
58697;SDS011;44475;53.206;-6.106;2024-03-08T13:11:56;7.65;;;4.40;;
58697;SDS011;44475;53.206;-6.106;2024-03-08T13:14:25;8.13;;;4.45;;
58697;SDS011;44475;53.206;-6.106;2024-03-08T13:16:52;8.10;;;4.45;;
58697;SDS011;44475;53.206;-6.106;2024-03-08T13:19:20;8.10;;;4.50;;
58697;SDS011;44475;53.206;-6.106;2024-03-08T13:21:47;8.23;;;4.55;;
58697;SDS011;44475;53.206;-6.106;2024-03-08T13:24:16;6.05;;;4.03;;
58697;SDS011;44475;53.206;-6.106;2024-03-08T13:26:44;7.07;;;4.40;;
58697;SDS011;44475;53.206;-6.106;2024-03-08T13:29:10;7.68;;;4.20;;
58697;SDS011;44475;53.206;-6.106;2024-03-08T13:31:36;6.40;;;4.13;;
58697;SDS011;44475;53.206;-6.106;2024-03-08T13:34:02;7.18;;;4.40;;
58697;SDS011;44475;53.206;-6.106;2024-03-08T13:36:30;8.00;;;4.10;;
58697;SDS011;44475;53.206;-6.106;2024-03-08T13:39:07;7.45;;;4.30;;
58697;SDS011;44475;53.206;-6.106;2024-03-08T13:41:43;7.70;;;4.20;;
58697;SDS011;44475;53.206;-6.106;2024-03-08T13:44:10;7.82;;;4.43;;
58697;SDS011;44475;53.206;-6.106;2024-03-08T13:46:36;15.77;;;4.55;;
58697;SDS011;44475;53.206;-6.106;2024-03-08T13:49:05;6.80;;;4.50;;
58697;SDS011;44475;53.206;-6.106;2024-03-08T13:51:33;10.40;;;4.63;;
58697;SDS011;44475;53.206;-6.106;2024-03-08T13:53:59;7.93;;;4.28;;
58697;SDS011;44475;53.206;-6.106;2024-03-08T13:56:26;6.43;;;4.38;;
58697;SDS011;44475;53.206;-6.106;2024-03-08T13:58:52;7.15;;;4.63;;
58697;SDS011;44475;53.206;-6.106;2024-03-08T14:01:21;7.60;;;4.45;;
58697;SDS011;44475;53.206;-6.106;2024-03-08T14:03:47;8.32;;;4.50;;
58697;SDS011;44475;53.206;-6.106;2024-03-08T14:06:14;7.13;;;4.63;;
58697;SDS011;44475;53.206;-6.106;2024-03-08T14:08:40;9.60;;;4.40;;
58697;SDS011;44475;53.206;-6.106;2024-03-08T14:11:06;7.35;;;4.40;;
58697;SDS011;44475;53.206;-6.106;2024-03-08T14:13:41;7.65;;;4.60;;
58697;SDS011;44475;53.206;-6.106;2024-03-08T14:16:09;6.22;;;4.25;;
58697;SDS011;44475;53.206;-6.106;2024-03-08T14:18:35;9.02;;;4.43;;
58697;SDS011;44475;53.206;-6.106;2024-03-08T14:21:02;9.00;;;4.70;;
58697;SDS011;44475;53.206;-6.106;2024-03-08T14:23:29;8.25;;;4.55;;
58697;SDS011;44475;53.206;-6.106;2024-03-08T14:25:55;10.65;;;4.88;;
58697;SDS011;44475;53.206;-6.106;2024-03-08T14:28:24;10.38;;;4.57;;
58697;SDS011;44475;53.206;-6.106;2024-03-08T14:30:52;6.97;;;4.32;;
58697;SDS011;44475;53.206;-6.106;2024-03-08T14:33:18;7.75;;;4.38;;
58697;SDS011;44475;53.206;-6.106;2024-03-08T14:35:45;7.80;;;4.90;;
58697;SDS011;44475;53.206;-6.106;2024-03-08T14:38:12;7.63;;;4.55;;
58697;SDS011;44475;53.206;-6.106;2024-03-08T14:40:38;6.88;;;4.60;;
58697;SDS011;44475;53.206;-6.106;2024-03-08T14:43:05;7.38;;;4.40;;
58697;SDS011;44475;53.206;-6.106;2024-03-08T14:45:31;8.57;;;4.78;;
58697;SDS011;44475;53.206;-6.106;2024-03-08T14:47:58;7.95;;;4.70;;
58697;SDS011;44475;53.206;-6.106;2024-03-08T14:50:24;8.27;;;4.57;;
58697;SDS011;44475;53.206;-6.106;2024-03-08T14:52:51;8.73;;;4.90;;
58697;SDS011;44475;53.206;-6.106;2024-03-08T14:55:18;8.13;;;4.70;;
58697;SDS011;44475;53.206;-6.106;2024-03-08T14:57:50;6.88;;;4.43;;
58697;SDS011;44475;53.206;-6.106;2024-03-08T15:00:17;7.55;;;4.25;;
58697;SDS011;44475;53.206;-6.106;2024-03-08T15:02:54;6.00;;;4.20;;
58697;SDS011;44475;53.206;-6.106;2024-03-08T15:05:22;7.50;;;4.40;;
58697;SDS011;44475;53.206;-6.106;2024-03-08T15:07:57;6.43;;;4.10;;
58697;SDS011;44475;53.206;-6.106;2024-03-08T15:10:26;7.80;;;4.38;;
58697;SDS011;44475;53.206;-6.106;2024-03-08T15:12:54;7.60;;;4.55;;
58697;SDS011;44475;53.206;-6.106;2024-03-08T15:15:21;7.05;;;4.47;;
58697;SDS011;44475;53.206;-6.106;2024-03-08T15:17:49;7.00;;;4.28;;
58697;SDS011;44475;53.206;-6.106;2024-03-08T15:20:16;6.28;;;4.13;;
58697;SDS011;44475;53.206;-6.106;2024-03-08T15:25:16;9.20;;;4.70;;
58697;SDS011;44475;53.206;-6.106;2024-03-08T15:27:46;9.05;;;5.38;;
58697;SDS011;44475;53.206;-6.106;2024-03-08T15:30:13;11.15;;;6.03;;
58697;SDS011;44475;53.206;-6.106;2024-03-08T15:32:45;13.93;;;6.47;;
58697;SDS011;44475;53.206;-6.106;2024-03-08T15:35:13;10.73;;;5.65;;
58697;SDS011;44475;53.206;-6.106;2024-03-08T15:37:40;13.07;;;5.40;;
58697;SDS011;44475;53.206;-6.106;2024-03-08T15:40:13;11.32;;;5.28;;